createdAt,value
2022-07-26T00:00:15.033Z,70.98
2022-07-26T00:02:47.282Z,70.85
2022-07-26T00:05:18.073Z,70.63
2022-07-26T00:07:46.134Z,70.75
2022-07-26T00:10:14.414Z,70.84
2022-07-26T00:12:41.851Z,70.78
2022-07-26T00:15:10.820Z,71.02
2022-07-26T00:17:38.585Z,71.02
2022-07-26T00:20:06.153Z,71.11
2022-07-26T00:22:36.153Z,70.98
2022-07-26T00:25:09.039Z,71.20
2022-07-26T00:27:39.465Z,71.10
2022-07-26T00:30:08.565Z,70.78
2022-07-26T00:32:35.915Z,71.08
2022-07-26T00:35:02.841Z,71.61
2022-07-26T00:37:29.815Z,71.35
2022-07-26T00:39:56.757Z,71.49
2022-07-26T00:42:24.067Z,71.30
2022-07-26T00:44:50.931Z,71.22
2022-07-26T00:47:18.048Z,71.60
2022-07-26T00:49:45.019Z,71.64
2022-07-26T00:52:12.714Z,71.91
2022-07-26T00:54:44.029Z,71.76
2022-07-26T00:57:11.070Z,71.70
2022-07-26T00:59:38.177Z,71.58
2022-07-26T01:02:06.178Z,72.17
2022-07-26T01:04:33.535Z,71.62
2022-07-26T01:07:01.698Z,72.06
2022-07-26T01:09:28.621Z,71.80
2022-07-26T01:11:55.491Z,71.88
2022-07-26T01:14:23.360Z,71.88
2022-07-26T01:16:51.182Z,72.07
2022-07-26T01:19:18.919Z,71.85
2022-07-26T01:21:46.356Z,72.11
2022-07-26T01:24:13.462Z,71.72
2022-07-26T01:26:40.324Z,71.70
2022-07-26T01:29:07.418Z,71.94
2022-07-26T01:31:34.644Z,72.26
2022-07-26T01:34:01.738Z,71.93
2022-07-26T01:36:28.690Z,72.08
2022-07-26T01:38:55.628Z,71.85
2022-07-26T01:41:37.492Z,71.90
2022-07-26T01:44:06.528Z,71.99
2022-07-26T01:46:34.597Z,71.80
2022-07-26T01:49:02.098Z,71.87
2022-07-26T01:51:29.223Z,72.05
2022-07-26T01:53:56.328Z,72.12
2022-07-26T01:56:23.217Z,72.41
2022-07-26T01:58:50.547Z,72.65
2022-07-26T02:01:38.697Z,72.29
2022-07-26T02:04:04.868Z,72.66
2022-07-26T02:06:31.909Z,72.33
2022-07-26T02:09:00.944Z,72.42
2022-07-26T02:11:29.055Z,72.65
2022-07-26T02:13:55.930Z,72.55
2022-07-26T02:16:22.985Z,72.54
2022-07-26T02:18:49.949Z,72.57
2022-07-26T02:21:16.854Z,72.62
2022-07-26T02:23:43.782Z,72.53
2022-07-26T02:26:10.711Z,72.87
2022-07-26T02:28:37.640Z,73.08
2022-07-26T02:31:04.727Z,72.99
2022-07-26T02:33:31.805Z,72.99
2022-07-26T02:35:58.650Z,73.56
2022-07-26T02:38:25.549Z,73.61
2022-07-26T02:40:53.004Z,73.27
2022-07-26T02:43:20.181Z,73.35
2022-07-26T02:46:01.138Z,73.66
2022-07-26T02:48:30.436Z,73.70
2022-07-26T02:50:57.398Z,73.86
2022-07-26T02:53:24.271Z,73.80
2022-07-26T02:55:51.365Z,73.77
2022-07-26T02:58:20.127Z,73.60
2022-07-26T03:00:47.025Z,73.88
2022-07-26T03:03:14.498Z,73.91
2022-07-26T03:05:41.791Z,73.68
2022-07-26T03:08:08.877Z,73.54
2022-07-26T03:10:35.739Z,74.34
2022-07-26T03:13:02.662Z,74.16
2022-07-26T03:15:29.662Z,74.32
2022-07-26T03:17:56.774Z,74.28
2022-07-26T03:20:23.677Z,74.34
2022-07-26T03:22:50.565Z,74.04
2022-07-26T03:25:17.510Z,74.22
2022-07-26T03:27:44.602Z,74.11
2022-07-26T03:30:12.358Z,74.11
2022-07-26T03:32:39.256Z,73.99
2022-07-26T03:35:07.388Z,74.14
2022-07-26T03:37:46.296Z,74.41
2022-07-26T03:40:17.285Z,74.14
2022-07-26T03:42:48.312Z,74.60
2022-07-26T03:45:16.292Z,74.30
2022-07-26T03:47:43.910Z,74.60
2022-07-26T03:50:11.411Z,74.73
2022-07-26T03:52:38.588Z,74.20
2022-07-26T03:55:26.806Z,74.07
2022-07-26T03:57:53.852Z,74.23
2022-07-26T04:00:20.899Z,74.04
2022-07-26T04:02:47.919Z,74.07
2022-07-26T04:05:14.908Z,74.04
2022-07-26T04:07:52.833Z,74.21
2022-07-26T04:10:21.557Z,74.39
2022-07-26T04:12:48.804Z,74.44
2022-07-26T04:15:17.340Z,74.34
2022-07-26T04:17:44.254Z,74.29
2022-07-26T04:20:12.082Z,74.97
2022-07-26T04:22:40.305Z,75.25
2022-07-26T04:25:08.972Z,75.10
2022-07-26T04:27:36.460Z,74.50
2022-07-26T04:30:04.175Z,74.63
2022-07-26T04:32:31.082Z,74.65
2022-07-26T04:34:57.930Z,74.13
2022-07-26T04:37:24.945Z,74.58
2022-07-26T04:39:54.916Z,75.06
2022-07-26T04:42:22.167Z,74.83
2022-07-26T04:44:49.094Z,74.93
2022-07-26T04:47:15.980Z,75.00
2022-07-26T04:49:42.978Z,74.95
2022-07-26T04:52:09.841Z,74.70
2022-07-26T04:54:36.778Z,75.15
2022-07-26T04:57:03.824Z,75.37
2022-07-26T04:59:32.533Z,75.43
2022-07-26T05:02:00.111Z,75.32
2022-07-26T05:04:27.562Z,75.69
2022-07-26T05:06:54.461Z,75.20
2022-07-26T05:09:21.442Z,74.83
2022-07-26T05:11:48.352Z,75.26
2022-07-26T05:14:15.246Z,75.46
2022-07-26T05:16:44.359Z,75.34
2022-07-26T05:19:13.772Z,75.20
2022-07-26T05:21:41.119Z,74.78
2022-07-26T05:24:08.575Z,74.56
2022-07-26T05:26:35.746Z,75.23
2022-07-26T05:29:02.841Z,75.54
2022-07-26T05:31:29.855Z,75.18
2022-07-26T05:33:56.841Z,75.21
2022-07-26T05:36:23.708Z,75.83
2022-07-26T05:38:50.615Z,75.85
2022-07-26T05:41:18.908Z,75.92
2022-07-26T05:43:45.945Z,76.06
2022-07-26T05:46:12.917Z,76.19
2022-07-26T05:48:42.783Z,76.22
2022-07-26T05:51:10.866Z,76.29
2022-07-26T05:53:38.057Z,76.33
2022-07-26T05:56:05.550Z,76.79
2022-07-26T05:58:32.855Z,76.80
2022-07-26T06:01:00.289Z,76.87
2022-07-26T06:03:27.917Z,76.44
2022-07-26T06:05:57.225Z,77.05
2022-07-26T06:08:26.330Z,76.49
2022-07-26T06:10:54.047Z,76.57
2022-07-26T06:13:21.122Z,76.42
2022-07-26T06:15:48.474Z,76.15
2022-07-26T06:18:16.598Z,75.96
2022-07-26T06:20:46.371Z,76.09
2022-07-26T06:23:13.840Z,75.64
2022-07-26T06:25:40.834Z,76.02
2022-07-26T06:28:09.511Z,76.20
2022-07-26T06:30:37.914Z,75.94
2022-07-26T06:33:05.666Z,76.40
2022-07-26T06:35:34.366Z,76.23
2022-07-26T06:38:01.390Z,76.82
2022-07-26T06:40:28.385Z,76.83
2022-07-26T06:42:55.274Z,76.60
2022-07-26T06:45:22.247Z,76.13
2022-07-26T06:47:49.160Z,76.64
2022-07-26T06:50:16.148Z,76.21
2022-07-26T06:52:47.738Z,76.45
2022-07-26T06:55:14.937Z,75.81
2022-07-26T06:57:49.652Z,75.30
2022-07-26T07:00:18.170Z,75.44
2022-07-26T07:02:45.343Z,75.21
2022-07-26T07:05:12.506Z,75.46
2022-07-26T07:07:42.186Z,75.24
2022-07-26T07:10:10.287Z,74.88
2022-07-26T07:12:40.296Z,75.14
2022-07-26T07:15:07.595Z,74.60
2022-07-26T07:17:35.182Z,74.22
2022-07-26T07:20:03.956Z,74.20
2022-07-26T07:22:30.997Z,73.90
2022-07-26T07:24:57.968Z,73.05
2022-07-26T07:27:25.248Z,73.40
2022-07-26T07:29:54.251Z,72.94
2022-07-26T07:32:24.788Z,72.94
2022-07-26T07:34:53.455Z,72.27
2022-07-26T07:37:20.641Z,71.99
2022-07-26T07:39:50.101Z,72.32
2022-07-26T07:42:17.565Z,72.16
2022-07-26T07:44:44.427Z,72.04
2022-07-26T07:47:11.545Z,71.66
2022-07-26T07:49:38.445Z,70.93
2022-07-26T07:52:06.299Z,70.53
2022-07-26T07:54:34.236Z,70.08
2022-07-26T07:57:01.760Z,70.13
2022-07-26T07:59:29.482Z,70.03
2022-07-26T08:01:56.952Z,69.55
2022-07-26T08:04:24.437Z,68.88
2022-07-26T08:06:52.061Z,68.91
2022-07-26T08:09:20.383Z,67.85
2022-07-26T08:11:50.676Z,67.41
2022-07-26T08:14:19.266Z,67.62
2022-07-26T08:16:46.581Z,66.81
2022-07-26T08:19:14.366Z,66.58
2022-07-26T08:21:43.154Z,66.33
2022-07-26T08:24:11.057Z,65.24
2022-07-26T08:26:38.414Z,65.54
2022-07-26T08:29:05.503Z,63.69
2022-07-26T08:31:32.456Z,63.00
2022-07-26T08:33:59.621Z,61.53
2022-07-26T08:36:32.165Z,60.71
2022-07-26T08:39:00.784Z,60.79
2022-07-26T08:41:27.852Z,60.42
2022-07-26T08:43:54.900Z,61.75
2022-07-26T08:46:25.748Z,61.23
2022-07-26T08:48:53.779Z,61.70
2022-07-26T08:51:23.009Z,61.04
2022-07-26T08:53:51.609Z,60.57
2022-07-26T08:56:18.518Z,60.31
2022-07-26T08:58:45.826Z,60.94
2022-07-26T09:01:13.438Z,59.40
2022-07-26T09:03:42.111Z,58.32
2022-07-26T09:06:21.043Z,58.28
2022-07-26T09:08:53.302Z,57.03
2022-07-26T09:11:33.406Z,57.58
2022-07-26T09:14:02.711Z,55.93
2022-07-26T09:16:30.337Z,56.88
2022-07-26T09:19:19.331Z,56.86
2022-07-26T09:21:46.849Z,56.95
2022-07-26T09:24:14.465Z,55.69
2022-07-26T09:26:41.605Z,54.12
2022-07-26T09:29:10.950Z,54.98
2022-07-26T09:31:39.731Z,54.51
2022-07-26T09:34:07.929Z,52.89
2022-07-26T09:36:51.543Z,54.13
2022-07-26T09:39:27.790Z,54.87
2022-07-26T09:42:27.611Z,54.90
2022-07-26T09:44:57.194Z,53.98
2022-07-26T09:47:36.894Z,54.41
2022-07-26T09:50:20.144Z,54.50
2022-07-26T09:53:13.991Z,51.94
2022-07-26T09:55:48.293Z,53.15
2022-07-26T09:58:17.562Z,52.91
2022-07-26T10:00:44.611Z,53.47
2022-07-26T10:03:12.585Z,54.31
2022-07-26T10:05:41.136Z,52.22
2022-07-26T10:08:08.423Z,49.64
2022-07-26T10:10:48.280Z,49.18
2022-07-26T10:13:15.980Z,48.37
2022-07-26T10:15:50.512Z,50.71
2022-07-26T10:18:40.598Z,50.32
2022-07-26T10:21:27.225Z,50.24
2022-07-26T10:24:03.190Z,49.70
2022-07-26T10:26:33.170Z,49.79
2022-07-26T10:29:18.369Z,50.06
2022-07-26T10:31:48.957Z,50.50
2022-07-26T10:34:38.325Z,53.57
2022-07-26T10:37:10.836Z,55.04
2022-07-26T10:39:38.476Z,55.40
2022-07-26T10:42:09.713Z,55.86
2022-07-26T10:44:45.440Z,56.57
2022-07-26T10:47:16.058Z,56.80
2022-07-26T10:49:56.012Z,57.77
2022-07-26T10:52:27.190Z,58.26
2022-07-26T10:54:56.914Z,57.42
2022-07-26T10:57:40.986Z,57.07
2022-07-26T11:00:19.777Z,55.56
2022-07-26T11:02:53.962Z,54.35
2022-07-26T11:05:22.671Z,54.35
2022-07-26T11:07:56.653Z,54.26
2022-07-26T11:10:30.444Z,53.40
2022-07-26T11:13:14.799Z,52.32
2022-07-26T11:15:49.945Z,50.96
2022-07-26T11:18:19.827Z,52.32
2022-07-26T11:20:49.952Z,51.53
2022-07-26T11:23:33.785Z,50.47
2022-07-26T11:26:11.571Z,50.77
2022-07-26T11:29:00.916Z,50.33
2022-07-26T11:31:50.556Z,52.69
2022-07-26T11:34:28.715Z,53.16
2022-07-26T11:36:57.986Z,53.72
2022-07-26T11:39:26.731Z,53.27
2022-07-26T11:41:58.609Z,54.10
2022-07-26T11:44:25.685Z,54.32
2022-07-26T11:46:52.711Z,54.32
2022-07-26T11:49:52.482Z,54.76
2022-07-26T11:52:13.310Z,54.18
2022-07-26T11:54:51.725Z,52.99
2022-07-26T11:57:21.067Z,52.54
2022-07-26T11:59:48.943Z,53.61
2022-07-26T12:02:16.026Z,53.23
2022-07-26T12:04:44.121Z,53.12
2022-07-26T12:07:17.232Z,52.70
2022-07-26T12:09:53.436Z,52.76
2022-07-26T12:12:28.016Z,53.14
2022-07-26T12:15:07.457Z,53.57
2022-07-26T12:17:35.759Z,53.50
2022-07-26T12:20:17.654Z,53.97
2022-07-26T12:22:55.759Z,53.14
2022-07-26T12:25:29.785Z,52.89
2022-07-26T12:27:57.124Z,52.55
2022-07-26T12:30:30.699Z,52.73
2022-07-26T12:33:02.819Z,51.94
2022-07-26T12:35:36.022Z,52.09
2022-07-26T12:38:04.115Z,52.10
2022-07-26T12:40:41.291Z,50.99
2022-07-26T12:43:10.085Z,50.20
2022-07-26T12:45:38.798Z,50.05
2022-07-26T12:48:11.622Z,50.08
2022-07-26T12:50:39.963Z,49.54
2022-07-26T12:53:09.346Z,49.88
2022-07-26T12:55:40.253Z,49.12
2022-07-26T12:58:07.775Z,47.09
2022-07-26T13:00:36.231Z,48.40
2022-07-26T13:03:03.196Z,47.93
2022-07-26T13:05:32.007Z,48.61
2022-07-26T13:07:58.981Z,48.63
2022-07-26T13:10:35.088Z,48.90
2022-07-26T13:13:02.821Z,49.54
2022-07-26T13:15:35.304Z,49.24
2022-07-26T13:18:08.690Z,49.78
2022-07-26T13:20:39.198Z,49.86
2022-07-26T13:23:12.755Z,49.63
2022-07-26T13:25:43.384Z,50.26
2022-07-26T13:28:10.438Z,50.19
2022-07-26T13:30:38.937Z,50.40
2022-07-26T13:33:05.844Z,50.42
2022-07-26T13:35:32.726Z,50.47
2022-07-26T13:37:59.666Z,50.61
2022-07-26T13:40:31.862Z,50.22
2022-07-26T13:43:00.308Z,49.90
2022-07-26T13:45:29.010Z,49.88
2022-07-26T13:47:56.381Z,50.45
2022-07-26T13:50:23.373Z,51.50
2022-07-26T13:52:50.277Z,51.62
2022-07-26T13:55:17.249Z,51.01
2022-07-26T13:57:55.554Z,50.98
2022-07-26T14:00:31.588Z,51.71
2022-07-26T14:02:59.321Z,51.82
2022-07-26T14:05:28.285Z,52.11
2022-07-26T14:07:56.180Z,52.27
2022-07-26T14:10:24.513Z,52.83
2022-07-26T14:12:52.688Z,53.92
2022-07-26T14:15:23.104Z,54.48
2022-07-26T14:17:54.512Z,54.66
2022-07-26T14:20:23.187Z,55.32
2022-07-26T14:23:02.548Z,55.15
2022-07-26T14:25:32.041Z,55.55
2022-07-26T14:28:01.000Z,56.22
2022-07-26T14:30:28.237Z,56.74
2022-07-26T14:32:55.650Z,56.61
2022-07-26T14:35:23.163Z,56.34
2022-07-26T14:37:51.580Z,55.46
2022-07-26T14:40:19.671Z,55.11
2022-07-26T14:42:48.620Z,55.16
2022-07-26T14:45:15.701Z,55.55
2022-07-26T14:47:43.527Z,54.87
2022-07-26T14:50:11.730Z,55.00
2022-07-26T14:52:44.702Z,54.84
2022-07-26T14:55:12.226Z,54.28
2022-07-26T14:57:40.259Z,53.17
2022-07-26T15:00:10.314Z,52.68
2022-07-26T15:02:41.509Z,52.43
2022-07-26T15:05:16.005Z,52.76
2022-07-26T15:07:43.029Z,53.19
2022-07-26T15:10:11.598Z,53.06
2022-07-26T15:12:38.968Z,53.42
2022-07-26T15:15:07.328Z,53.47
2022-07-26T15:17:35.008Z,53.49
2022-07-26T15:20:02.159Z,54.11
2022-07-26T15:22:29.024Z,54.77
2022-07-26T15:24:56.129Z,55.08
2022-07-26T15:27:23.850Z,55.05
2022-07-26T15:29:51.530Z,55.09
2022-07-26T15:32:20.737Z,55.75
2022-07-26T15:34:47.726Z,55.01
2022-07-26T15:37:14.694Z,54.96
2022-07-26T15:39:41.807Z,55.67
2022-07-26T15:42:09.246Z,55.28
2022-07-26T15:44:38.827Z,55.60
2022-07-26T15:47:05.908Z,55.01
2022-07-26T15:49:33.225Z,54.96
2022-07-26T15:52:01.273Z,55.58
2022-07-26T15:54:28.189Z,55.58
2022-07-26T15:56:55.232Z,55.31
2022-07-26T15:59:22.359Z,55.19
2022-07-26T16:01:49.386Z,55.47
2022-07-26T16:04:16.529Z,56.14
2022-07-26T16:06:43.490Z,56.20
2022-07-26T16:09:17.417Z,55.13
2022-07-26T16:11:45.623Z,55.27
2022-07-26T16:14:12.589Z,54.78
2022-07-26T16:16:39.565Z,55.32
2022-07-26T16:19:06.494Z,55.61
2022-07-26T16:21:33.435Z,55.55
2022-07-26T16:24:06.075Z,55.11
2022-07-26T16:26:34.463Z,55.60
2022-07-26T16:29:01.831Z,54.20
2022-07-26T16:31:28.811Z,55.17
2022-07-26T16:33:55.743Z,55.07
2022-07-26T16:36:22.662Z,54.63
2022-07-26T16:38:49.570Z,53.90
2022-07-26T16:41:16.728Z,54.05
2022-07-26T16:43:43.734Z,53.64
2022-07-26T16:46:10.665Z,54.29
2022-07-26T16:48:37.863Z,54.84
2022-07-26T16:51:05.405Z,55.23
2022-07-26T16:53:32.520Z,54.83
2022-07-26T16:55:59.940Z,55.16
2022-07-26T16:58:26.976Z,53.48
2022-07-26T17:00:54.279Z,54.19
2022-07-26T17:03:21.293Z,53.42
2022-07-26T17:05:48.206Z,52.95
2022-07-26T17:08:15.336Z,51.86
2022-07-26T17:10:42.811Z,52.92
2022-07-26T17:13:09.814Z,52.64
2022-07-26T17:15:36.792Z,52.82
2022-07-26T17:18:04.111Z,52.37
2022-07-26T17:20:31.741Z,51.99
2022-07-26T17:22:59.031Z,52.00
2022-07-26T17:25:41.332Z,52.11
2022-07-26T17:28:08.399Z,52.28
2022-07-26T17:30:35.304Z,50.45
2022-07-26T17:33:02.694Z,51.11
2022-07-26T17:35:29.835Z,50.71
2022-07-26T17:37:57.030Z,51.02
2022-07-26T17:40:25.645Z,51.63
2022-07-26T17:42:52.880Z,51.41
2022-07-26T17:45:19.742Z,51.30
2022-07-26T17:47:47.333Z,51.22
2022-07-26T17:50:35.270Z,51.29
2022-07-26T17:53:01.109Z,51.22
2022-07-26T17:55:28.449Z,50.82
2022-07-26T17:57:55.564Z,51.59
2022-07-26T18:00:23.380Z,51.70
2022-07-26T18:02:56.068Z,51.60
2022-07-26T18:05:27.274Z,51.08
2022-07-26T18:07:59.874Z,51.04
2022-07-26T18:10:27.807Z,51.63
2022-07-26T18:12:55.237Z,50.96
2022-07-26T18:15:22.228Z,51.73
2022-07-26T18:17:49.065Z,51.44
2022-07-26T18:20:16.046Z,50.86
2022-07-26T18:22:42.930Z,51.44
2022-07-26T18:25:14.147Z,51.61
2022-07-26T18:27:41.074Z,52.29
2022-07-26T18:30:08.442Z,51.86
2022-07-26T18:32:35.416Z,51.67
2022-07-26T18:35:02.479Z,52.00
2022-07-26T18:37:29.989Z,51.53
2022-07-26T18:39:58.113Z,52.02
2022-07-26T18:42:26.026Z,51.97
2022-07-26T18:44:53.039Z,52.56
2022-07-26T18:47:19.906Z,52.57
2022-07-26T18:49:46.749Z,52.22
2022-07-26T18:52:14.725Z,52.51
2022-07-26T18:54:41.725Z,52.44
2022-07-26T18:57:09.065Z,52.29
2022-07-26T18:59:36.148Z,52.37
2022-07-26T19:02:03.950Z,52.55
2022-07-26T19:04:30.933Z,52.62
2022-07-26T19:06:57.842Z,52.66
2022-07-26T19:09:24.736Z,52.58
2022-07-26T19:11:51.716Z,52.66
2022-07-26T19:14:18.858Z,52.50
2022-07-26T19:16:45.792Z,53.06
2022-07-26T19:19:13.021Z,52.75
2022-07-26T19:21:45.022Z,52.05
2022-07-26T19:24:11.925Z,52.47
2022-07-26T19:26:39.001Z,52.05
2022-07-26T19:29:05.886Z,52.82
2022-07-26T19:31:33.049Z,52.46
2022-07-26T19:33:59.938Z,52.25
2022-07-26T19:36:26.792Z,51.63
2022-07-26T19:38:55.922Z,52.07
2022-07-26T19:41:22.943Z,52.35
2022-07-26T19:43:49.802Z,52.68
2022-07-26T19:46:16.787Z,53.01
2022-07-26T19:48:43.757Z,52.53
2022-07-26T19:51:10.789Z,52.87
2022-07-26T19:53:37.707Z,52.49
2022-07-26T19:56:04.927Z,52.25
2022-07-26T19:58:31.824Z,52.54
2022-07-26T20:00:58.724Z,51.89
2022-07-26T20:03:25.653Z,52.05
2022-07-26T20:05:53.880Z,52.46
2022-07-26T20:08:21.217Z,52.59
2022-07-26T20:10:48.106Z,52.44
2022-07-26T20:13:15.105Z,52.97
2022-07-26T20:15:42.137Z,52.58
2022-07-26T20:18:10.583Z,52.44
2022-07-26T20:20:37.657Z,52.66
2022-07-26T20:23:06.240Z,52.65
2022-07-26T20:25:33.766Z,53.18
2022-07-26T20:28:00.835Z,52.51
2022-07-26T20:30:28.003Z,52.98
2022-07-26T20:32:55.093Z,52.82
2022-07-26T20:35:21.996Z,53.04
2022-07-26T20:37:48.977Z,52.74
2022-07-26T20:40:18.026Z,52.50
2022-07-26T20:42:45.480Z,52.34
2022-07-26T20:45:15.310Z,52.74
2022-07-26T20:47:43.204Z,52.17
2022-07-26T20:50:11.630Z,52.86
2022-07-26T20:52:39.234Z,52.31
2022-07-26T20:55:06.841Z,52.49
2022-07-26T20:57:33.801Z,52.04
2022-07-26T21:00:00.916Z,52.00
2022-07-26T21:02:28.143Z,51.88
2022-07-26T21:04:55.409Z,51.94
2022-07-26T21:07:22.548Z,51.99
2022-07-26T21:09:49.469Z,52.10
2022-07-26T21:12:16.416Z,52.16
2022-07-26T21:14:43.268Z,52.02
2022-07-26T21:17:12.123Z,51.87
2022-07-26T21:19:40.310Z,51.88
2022-07-26T21:22:07.746Z,51.83
2022-07-26T21:24:35.377Z,51.64
2022-07-26T21:27:03.893Z,51.92
2022-07-26T21:29:31.134Z,52.47
2022-07-26T21:31:58.188Z,52.26
2022-07-26T21:34:25.731Z,52.67
2022-07-26T21:36:53.809Z,52.64
2022-07-26T21:39:21.113Z,52.47
2022-07-26T21:41:48.951Z,52.77
2022-07-26T21:44:15.838Z,53.25
2022-07-26T21:46:42.782Z,53.55
2022-07-26T21:49:10.209Z,53.74
2022-07-26T21:51:37.640Z,52.68
2022-07-26T21:54:08.016Z,53.08
2022-07-26T21:56:35.857Z,52.23
2022-07-26T21:59:02.739Z,52.66
2022-07-26T22:01:29.770Z,53.02
2022-07-26T22:03:56.808Z,53.05
2022-07-26T22:06:23.772Z,53.20
2022-07-26T22:08:50.702Z,53.30
2022-07-26T22:11:17.603Z,53.59
2022-07-26T22:13:45.168Z,53.73
2022-07-26T22:16:12.355Z,54.11
2022-07-26T22:18:39.341Z,54.31
2022-07-26T22:21:06.241Z,54.02
2022-07-26T22:23:33.637Z,54.02
2022-07-26T22:26:02.469Z,54.44
2022-07-26T22:28:30.300Z,54.47
2022-07-26T22:30:57.488Z,53.76
2022-07-26T22:33:24.574Z,53.84
2022-07-26T22:35:52.117Z,53.75
2022-07-26T22:38:19.243Z,53.81
2022-07-26T22:40:46.134Z,53.91
2022-07-26T22:43:13.325Z,53.10
2022-07-26T22:45:40.646Z,53.62
2022-07-26T22:48:09.450Z,54.00
2022-07-26T22:50:36.393Z,53.64
2022-07-26T22:53:03.788Z,53.31
2022-07-26T22:55:30.932Z,53.54
2022-07-26T22:57:58.112Z,54.01
2022-07-26T23:00:25.341Z,53.75
2022-07-26T23:02:52.366Z,54.26
2022-07-26T23:05:19.578Z,54.13
2022-07-26T23:07:47.938Z,53.50
2022-07-26T23:10:15.478Z,54.29
2022-07-26T23:12:42.472Z,54.14
2022-07-26T23:15:10.088Z,54.24
2022-07-26T23:17:37.634Z,54.00
2022-07-26T23:20:06.033Z,54.12
2022-07-26T23:22:32.953Z,54.61
2022-07-26T23:24:59.868Z,54.97
2022-07-26T23:27:26.729Z,54.51
2022-07-26T23:29:53.697Z,54.76
2022-07-26T23:32:20.641Z,54.23
2022-07-26T23:34:47.548Z,54.75
2022-07-26T23:37:14.500Z,54.91
2022-07-26T23:39:41.470Z,54.71
2022-07-26T23:42:08.491Z,55.48
2022-07-26T23:44:35.425Z,54.74
2022-07-26T23:47:02.375Z,54.78
2022-07-26T23:49:29.737Z,54.63
2022-07-26T23:51:56.727Z,55.12
2022-07-26T23:54:23.622Z,54.69
2022-07-26T23:56:50.596Z,54.63
2022-07-26T23:59:17.645Z,55.19
